K0HYD Weather Reports


Display with metric or nautical units.
time (UTC)temp
F
wind
direction
speed
MPH
gust
MPH
rain 1hr
in
rain 24hr
in
rain mn
in
humidity
%
barometer
mb
20181216095757 30 21 0.0 0.0 0.00 0.00 0.00 69 1020.8
20181216094257 31 22 0.0 0.0 0.00 0.00 0.00 67 1020.6
20181216092757 31 22 0.0 0.0 0.00 0.00 0.00 67 1020.6
20181216091257 30 349 0.0 1.0 0.00 0.00 0.00 67 1020.6
20181216085757 29 145 0.0 0.0 0.00 0.00 0.00 69 1020.3
20181216084257 30 146 0.0 0.0 0.00 0.00 0.00 67 1020.6
20181216082757 29 145 0.0 0.0 0.00 0.00 0.00 69 1020.7
20181216081257 27 145 0.0 0.0 0.00 0.00 0.00 71 1020.7
20181216075757 27 145 0.0 0.0 0.00 0.00 0.00 70 1020.5
20181216074257 26 145 0.0 0.0 0.00 0.00 0.00 72 1020.5
20181216072757 25 145 0.0 0.0 0.00 0.00 0.00 71 1020.5
20181216071258 25 145 0.0 0.0 0.00 0.00 0.00 69 1020.5
20181216065757 26 145 0.0 0.0 0.00 0.00 0.00 67 1020.4
20181216064257 26 143 0.0 0.0 0.00 0.00 0.00 66 1020.5
20181216062757 26 146 0.0 0.0 0.00 0.00 0.00 65 1020.6
20181216061257 24 145 0.0 0.0 0.00 0.00 0.00 69 1021.0
20181216055757 25 211 0.0 0.0 0.00 0.00 0.00 68 1021.3
20181216054258 24 212 0.0 0.0 0.00 0.00 0.00 67 1021.5
20181216052758 26 212 0.0 0.0 0.00 0.00 0.00 64 1021.4
20181216051258 26 211 0.0 0.0 0.00 0.00 0.00 66 1021.3
20181216045758 26 211 0.0 0.0 0.00 0.00 0.00 66 1021.1
20181216044258 27 211 0.0 0.0 0.00 0.00 0.00 60 1021.3
20181216042759 29 211 0.0 0.0 0.00 0.00 0.00 60 1021.1
20181216041301 29 211 0.0 0.0 0.00 0.00 0.00 58 1021.0
20181216035758 29 211 0.0 0.0 0.00 0.00 0.00 55 1020.9
20181216034258 31 211 0.0 0.0 0.00 0.00 0.00 52 1020.5
20181216032758 32 211 0.0 0.0 0.00 0.00 0.00 49 1020.5
20181216031258 34 211 0.0 0.0 0.00 0.00 0.00 47 1020.6
20181216025758 32 169 0.0 0.0 0.00 0.00 0.00 52 1020.5
20181216024258 32 169 0.0 0.0 0.00 0.00 0.00 51 1020.3
20181216022758 31 169 0.0 0.0 0.00 0.00 0.00 52 1020.1
20181216021258 33 169 0.0 0.0 0.00 0.00 0.00 50 1020.0
20181216015759 33 169 0.0 0.0 0.00 0.00 0.00 47 1019.8
20181216014258 35 169 0.0 0.0 0.00 0.00 0.00 45 1019.7
20181216012758 37 169 0.0 0.0 0.00 0.00 0.00 40 1019.4
20181216011258 39 170 0.0 0.0 0.00 0.00 0.00 36 1019.5
20181216005758 42 169 0.0 0.0 0.00 0.00 0.00 34 1019.1
20181216004258 42 137 0.0 1.0 0.00 0.00 0.00 34 1018.8
20181216002758 43 150 0.0 0.0 0.00 0.00 0.00 32 1019.0
20181216001258 45 150 0.0 0.0 0.00 0.00 0.00 30 1018.9
20181215235759 45 130 0.0 1.0 0.00 0.00 0.00 29 1018.6
20181215234259 44 139 0.0 0.0 0.00 0.00 0.00 30 1018.6
20181215232758 45 140 0.0 0.0 0.00 0.00 0.00 29 1019.0
20181215231259 49 140 0.0 0.0 0.00 0.00 0.00 27 1019.2
20181215225759 51 140 0.0 1.0 0.00 0.00 0.00 24 1019.3
20181215224259 52 134 0.0 1.0 0.00 0.00 0.00 23 1019.1
20181215222759 53 156 0.0 1.0 0.00 0.00 0.00 22 1018.8
20181215221259 54 177 1.0 3.0 0.00 0.00 0.00 21 1018.8
20181215215759 55 153 1.0 4.0 0.00 0.00 0.00 20 1018.7
20181215214259 55 164 0.0 5.0 0.00 0.00 0.00 20 1018.6
20181215212759 56 219 3.0 4.0 0.00 0.00 0.00 20 1018.6
20181215211259 56 211 0.0 5.0 0.00 0.00 0.00 20 1018.8
20181215205759 56 180 2.0 4.0 0.00 0.00 0.00 19 1018.7
20181215204300 56 149 0.0 5.0 0.00 0.00 0.00 19 1018.6
20181215202759 56 119 4.0 6.0 0.00 0.00 0.00 19 1018.5
20181215201259 55 150 3.0 6.0 0.00 0.00 0.00 21 1018.6
20181215195759 55 160 2.0 5.0 0.00 0.00 0.00 22 1018.5
20181215194259 55 172 0.0 5.0 0.00 0.00 0.00 21 1018.7
20181215192759 54 149 0.0 5.0 0.00 0.00 0.00 23 1018.9
20181215191259 53 147 3.0 5.0 0.00 0.00 0.00 24 1019.2
20181215185800 53 211 1.0 5.0 0.00 0.00 0.00 24 1019.5
20181215184300 52 150 2.0 3.0 0.00 0.00 0.00 25 1019.7
20181215182800 52 97 1.0 5.0 0.00 0.00 0.00 24 1019.8
20181215181259 51 86 2.0 3.0 0.00 0.00 0.00 29 1020.2
20181215175800 50 134 1.0 4.0 0.00 0.00 0.00 31 1020.9
20181215174300 50 195 2.0 3.0 0.00 0.00 0.00 33 1021.2
20181215172800 48 113 0.0 4.0 0.00 0.00 0.00 35 1021.7
20181215171300 46 65 0.0 2.0 0.00 0.00 0.00 38 1022.0
20181215165800 47 180 0.0 1.0 0.00 0.00 0.00 43 1022.2
20181215164300 45 245 0.0 1.0 0.00 0.00 0.00 45 1022.4
20181215162800 43 218 0.0 1.0 0.00 0.00 0.00 48 1022.4
20181215161300 41 276 0.0 1.0 0.00 0.00 0.00 59 1022.4
20181215155800 39 275 0.0 1.0 0.00 0.00 0.00 67 1022.6
20181215154300 37 276 1.0 1.0 0.00 0.00 0.00 72 1022.5
20181215152800 34 273 0.0 1.0 0.00 0.00 0.00 75 1022.4
20181215151300 32 115 0.0 1.0 0.00 0.00 0.00 78 1022.3
20181215145800 30 115 0.0 1.0 0.00 0.00 0.00 82 1022.0
20181215144300 27 115 0.0 0.0 0.00 0.00 0.00 84 1021.8
20181215142800 25 115 0.0 1.0 0.00 0.00 0.00 86 1021.8
20181215141300 23 116 0.0 0.0 0.00 0.00 0.00 85 1021.7
20181215135800 23 116 0.0 0.0 0.00 0.00 0.00 85 1021.7
20181215134300 22 116 0.0 1.0 0.00 0.00 0.00 86 1021.5
20181215132800 21 116 0.0 0.0 0.00 0.00 0.00 87 1021.1
20181215131300 21 221 0.0 0.0 0.00 0.00 0.00 88 1021.4
20181215125800 20 221 0.0 0.0 0.00 0.00 0.00 89 1021.5
20181215124300 20 221 0.0 0.0 0.00 0.00 0.00 88 1021.5
20181215122800 20 221 0.0 0.0 0.00 0.00 0.00 87 1021.4
20181215121300 21 221 0.0 0.0 0.00 0.00 0.00 85 1021.4
20181215115800 21 221 0.0 0.0 0.00 0.00 0.00 84 1021.6
20181215114301 22 221 0.0 0.0 0.00 0.00 0.00 84 1021.6
20181215112800 23 221 0.0 1.0 0.00 0.00 0.00 84 1021.5
20181215111301 24 222 0.0 1.0 0.00 0.00 0.00 84 1021.3
20181215105801 24 224 0.0 0.0 0.00 0.00 0.00 83 1021.3
20181215104301 24 224 0.0 0.0 0.00 0.00 0.00 83 1021.1
20181215102801 24 231 0.0 1.0 0.00 0.00 0.00 83 1021.0
20181215101301 23 229 0.0 2.0 0.00 0.00 0.00 85 1020.6